Time;durP1;ratioP1;P1;durP2;ratioP2;P2;SDS_P1;SDS_P2;PMS_P1;PMS_P2;Temp;Humidity;BMP_temperature;BMP_pressure;BME280_temperature;BME280_humidity;BME280_pressure;Samples;Min_cycle;Max_cycle;Signal;HPM_P1;HPM_P2
2022/06/22 00:22:07;;;;;;;0.05;0.05;;;;;;;;;;5077278;28;20259;-66
2022/06/22 00:24:45;;;;;;;0.00;0.00;;;;;;;;;;5063648;28;20312;-66
2022/06/22 00:27:20;;;;;;;0.00;0.00;;;;;;;;;;5085597;28;20305;-66
2022/06/22 00:29:47;;;;;;;0.10;0.10;;;;;;;;;;5064003;28;20466;-67
2022/06/22 00:32:15;;;;;;;0.00;0.00;;;;;;;;;;5085674;28;20259;-66
2022/06/22 00:34:42;;;;;;;0.00;0.00;;;;;;;;;;5063653;28;20265;-66
2022/06/22 00:37:13;;;;;;;0.00;0.00;;;;;;;;;;5085631;28;20444;-65
2022/06/22 00:39:42;;;;;;;0.00;0.00;;;;;;;;;;5063548;28;20274;-66
2022/06/22 00:42:24;;;;;;;0.00;0.00;;;;;;;;;;5085329;28;20561;-65
2022/06/22 00:44:52;;;;;;;0.00;0.00;;;;;;;;;;5063774;28;20201;-65
2022/06/22 00:47:22;;;;;;;0.00;0.00;;;;;;;;;;5084802;28;20453;-66
2022/06/22 00:49:48;;;;;;;0.00;0.00;;;;;;;;;;5063351;28;20232;-66
2022/06/22 00:52:21;;;;;;;9.50;8.80;;;;;;;;;;5085499;28;20240;-66
2022/06/22 00:54:48;;;;;;;0.00;0.00;;;;;;;;;;5063676;28;20294;-66
2022/06/22 00:57:20;;;;;;;0.10;0.10;;;;;;;;;;5085288;28;20311;-66
2022/06/22 00:59:51;;;;;;;0.00;0.00;;;;;;;;;;5063565;28;20211;-65
2022/06/22 01:02:23;;;;;;;0.00;0.00;;;;;;;;;;5085094;28;20269;-66
2022/06/22 01:04:52;;;;;;;0.10;0.10;;;;;;;;;;5063476;28;20201;-66
2022/06/22 01:07:22;;;;;;;0.08;0.08;;;;;;;;;;5085163;28;20260;-66
2022/06/22 01:09:52;;;;;;;0.00;0.00;;;;;;;;;;5063451;28;20273;-66
2022/06/22 01:12:25;;;;;;;0.00;0.00;;;;;;;;;;5085366;28;20252;-66
2022/06/22 01:14:57;;;;;;;0.08;0.08;;;;;;;;;;5063330;28;20397;-66
2022/06/22 01:17:27;;;;;;;0.00;0.00;;;;;;;;;;5085159;28;20310;-65
2022/06/22 01:19:56;;;;;;;0.00;0.00;;;;;;;;;;5063259;28;20287;-66
2022/06/22 01:22:41;;;;;;;0.00;0.00;;;;;;;;;;5085039;28;20310;-66
2022/06/22 01:25:19;;;;;;;0.00;0.00;;;;;;;;;;5046120;28;20294;-68
2022/06/22 01:27:47;;;;;;;0.00;0.00;;;;;;;;;;5091488;28;20201;-67
2022/06/22 01:30:20;;;;;;;0.00;0.00;;;;;;;;;;5054908;28;20206;-68
2022/06/22 01:32:47;;;;;;;0.00;0.00;;;;;;;;;;5091172;28;20437;-67
2022/06/22 01:35:15;;;;;;;0.00;0.00;;;;;;;;;;5054883;28;20393;-68
2022/06/22 01:37:44;;;;;;;0.00;0.00;;;;;;;;;;5092353;28;20203;-67
2022/06/22 01:40:13;;;;;;;0.00;0.00;;;;;;;;;;5054449;28;20205;-67
2022/06/22 01:42:44;;;;;;;0.00;0.00;;;;;;;;;;5092737;28;20195;-65
2022/06/22 01:45:14;;;;;;;0.00;0.00;;;;;;;;;;5054303;28;20200;-69
2022/06/22 01:47:42;;;;;;;0.10;0.10;;;;;;;;;;5092573;28;20204;-67
2022/06/22 01:50:14;;;;;;;0.00;0.00;;;;;;;;;;5053731;28;20299;-67
2022/06/22 01:52:45;;;;;;;0.00;0.00;;;;;;;;;;5091857;28;20203;-66
2022/06/22 01:55:16;;;;;;;0.00;0.00;;;;;;;;;;5053679;28;20225;-65
2022/06/22 01:57:45;;;;;;;0.10;0.10;;;;;;;;;;5091224;28;20195;-66
2022/06/22 02:00:15;;;;;;;0.10;0.10;;;;;;;;;;5053980;28;20276;-66
2022/06/22 02:02:45;;;;;;;0.00;0.00;;;;;;;;;;5091928;28;20265;-66
2022/06/22 02:05:16;;;;;;;0.00;0.00;;;;;;;;;;5054347;28;20424;-65
2022/06/22 02:07:46;;;;;;;0.03;0.03;;;;;;;;;;5091331;28;20270;-66
2022/06/22 02:10:30;;;;;;;0.00;0.00;;;;;;;;;;5054266;28;20193;-66
2022/06/22 02:13:00;;;;;;;0.00;0.00;;;;;;;;;;5074517;28;20438;-65
2022/06/22 02:15:45;;;;;;;0.00;0.00;;;;;;;;;;5057710;28;20244;-66
2022/06/22 02:18:12;;;;;;;0.00;0.00;;;;;;;;;;5083736;28;20240;-68
2022/06/22 02:20:39;;;;;;;0.00;0.00;;;;;;;;;;5061090;28;20308;-67
2022/06/22 02:23:16;;;;;;;0.00;0.00;;;;;;;;;;5085287;28;20284;-66
2022/06/22 02:25:46;;;;;;;0.10;0.10;;;;;;;;;;5061693;28;20259;-67
2022/06/22 02:28:12;;;;;;;0.00;0.00;;;;;;;;;;5083286;28;20296;-67
2022/06/22 02:30:41;;;;;;;0.00;0.00;;;;;;;;;;5060709;28;20377;-66
2022/06/22 02:33:08;;;;;;;0.00;0.00;;;;;;;;;;5084454;28;20196;-67
2022/06/22 02:35:35;;;;;;;0.10;0.10;;;;;;;;;;5059648;28;20376;-66
2022/06/22 02:38:05;;;;;;;0.00;0.00;;;;;;;;;;5085731;28;20202;-66
2022/06/22 02:44:29;;;;;;;0.10;0.10;;;;;;;;;;5058720;28;20238;-66
2022/06/22 02:46:05;;;;;;;0.00;0.00;;;;;;;;;;5067556;28;20285;-66
2022/06/22 02:48:33;;;;;;;0.00;0.00;;;;;;;;;;5077786;28;20260;-66
2022/06/22 02:51:02;;;;;;;0.08;0.08;;;;;;;;;;5066256;28;20253;-66
2022/06/22 02:53:33;;;;;;;0.10;0.10;;;;;;;;;;5078486;28;20354;-66
2022/06/22 02:56:01;;;;;;;0.00;0.00;;;;;;;;;;5066691;28;20246;-65
2022/06/22 02:58:29;;;;;;;0.00;0.00;;;;;;;;;;5078455;28;20212;-67
2022/06/22 03:00:55;;;;;;;0.00;0.00;;;;;;;;;;5065189;28;20611;-67
2022/06/22 03:03:24;;;;;;;0.10;0.10;;;;;;;;;;5079742;28;20228;-67
2022/06/22 03:05:52;;;;;;;0.00;0.00;;;;;;;;;;5063818;28;20245;-67
2022/06/22 03:08:20;;;;;;;0.00;0.00;;;;;;;;;;5081072;28;20210;-66
2022/06/22 03:10:48;;;;;;;0.10;0.10;;;;;;;;;;5065536;28;20248;-67
2022/06/22 03:13:15;;;;;;;0.00;0.00;;;;;;;;;;5085193;28;20268;-67
2022/06/22 03:15:42;;;;;;;0.00;0.00;;;;;;;;;;5064772;28;20345;-67
2022/06/22 03:18:10;;;;;;;0.00;0.00;;;;;;;;;;5087094;28;20213;-66
2022/06/22 03:20:41;;;;;;;0.08;0.08;;;;;;;;;;5058288;28;20205;-66
2022/06/22 03:23:13;;;;;;;0.00;0.00;;;;;;;;;;5092722;28;20264;-67
2022/06/22 03:25:43;;;;;;;0.00;0.00;;;;;;;;;;5058836;28;20202;-66
2022/06/22 03:28:13;;;;;;;0.10;0.10;;;;;;;;;;5091996;28;20237;-66
2022/06/22 03:30:44;;;;;;;0.00;0.00;;;;;;;;;;5058667;28;20244;-66
2022/06/22 03:33:12;;;;;;;0.10;0.10;;;;;;;;;;5091677;28;20190;-66
2022/06/22 03:35:42;;;;;;;0.00;0.00;;;;;;;;;;5058356;28;20232;-66
2022/06/22 03:41:15;;;;;;;0.10;0.10;;;;;;;;;;5001547;28;20300;-66
2022/06/22 03:43:57;;;;;;;0.10;0.10;;;;;;;;;;5016561;28;20213;-67
2022/06/22 03:46:26;;;;;;;0.10;0.10;;;;;;;;;;5075666;28;20244;-66
2022/06/22 03:48:56;;;;;;;0.00;0.00;;;;;;;;;;5074863;28;20212;-66
2022/06/22 03:51:27;;;;;;;0.00;0.00;;;;;;;;;;5072427;28;20304;-66
2022/06/22 03:53:58;;;;;;;0.10;0.10;;;;;;;;;;5077054;28;20208;-66
2022/06/22 03:56:27;;;;;;;0.08;0.08;;;;;;;;;;5072821;28;20492;-67
2022/06/22 03:58:54;;;;;;;0.05;0.05;;;;;;;;;;5077051;28;20205;-67
2022/06/22 04:01:21;;;;;;;0.00;0.00;;;;;;;;;;5073014;28;20239;-67
2022/06/22 04:03:48;;;;;;;0.00;0.00;;;;;;;;;;5076160;28;20212;-66
2022/06/22 04:06:19;;;;;;;0.05;0.05;;;;;;;;;;5072164;28;20594;-66
2022/06/22 04:08:47;;;;;;;0.00;0.00;;;;;;;;;;5076136;28;20307;-67
2022/06/22 04:11:17;;;;;;;0.00;0.00;;;;;;;;;;5072229;28;20245;-65
2022/06/22 04:13:46;;;;;;;0.05;0.05;;;;;;;;;;5076849;28;20201;-66
2022/06/22 04:16:15;;;;;;;0.10;0.10;;;;;;;;;;5072127;28;20257;-66
2022/06/22 04:18:43;;;;;;;0.08;0.08;;;;;;;;;;5077204;28;20210;-66
2022/06/22 04:21:12;;;;;;;0.00;0.00;;;;;;;;;;5070979;28;20356;-66
2022/06/22 04:23:40;;;;;;;0.05;0.05;;;;;;;;;;5078016;28;20206;-66
2022/06/22 04:26:11;;;;;;;0.00;0.00;;;;;;;;;;5070253;28;20571;-66
2022/06/22 04:28:39;;;;;;;0.10;0.10;;;;;;;;;;5077992;28;20534;-66
2022/06/22 04:31:07;;;;;;;0.00;0.00;;;;;;;;;;5069945;28;20636;-66
2022/06/22 04:33:36;;;;;;;0.00;0.00;;;;;;;;;;5079171;28;20206;-66
2022/06/22 04:36:05;;;;;;;0.00;0.00;;;;;;;;;;5068820;28;20295;-65
2022/06/22 04:38:34;;;;;;;0.05;0.05;;;;;;;;;;5079243;28;20249;-66
2022/06/22 04:41:02;;;;;;;0.10;0.10;;;;;;;;;;5068091;28;20434;-69
2022/06/22 04:43:30;;;;;;;0.05;0.05;;;;;;;;;;5080231;28;20242;-65
2022/06/22 04:45:57;;;;;;;0.05;0.05;;;;;;;;;;5067438;28;20579;-67
2022/06/22 04:48:25;;;;;;;0.00;0.00;;;;;;;;;;5081343;28;20214;-67
2022/06/22 04:50:56;;;;;;;0.00;0.00;;;;;;;;;;5065530;28;20578;-66
2022/06/22 04:53:27;;;;;;;0.10;0.10;;;;;;;;;;5082134;28;20379;-66
2022/06/22 04:55:53;;;;;;;0.08;0.08;;;;;;;;;;5065957;28;20264;-66
2022/06/22 04:58:29;;;;;;;0.00;0.00;;;;;;;;;;5082305;28;20225;-66
2022/06/22 05:00:57;;;;;;;0.00;0.00;;;;;;;;;;5066408;28;20281;-67
2022/06/22 05:03:23;;;;;;;0.00;0.00;;;;;;;;;;5081182;28;20218;-67
2022/06/22 05:05:50;;;;;;;0.10;0.10;;;;;;;;;;5064962;28;20236;-66
2022/06/22 05:08:19;;;;;;;0.00;0.00;;;;;;;;;;5083079;28;20224;-65
2022/06/22 05:10:47;;;;;;;0.08;0.08;;;;;;;;;;5063699;28;20354;-66
2022/06/22 05:13:15;;;;;;;0.05;0.05;;;;;;;;;;5083805;28;20490;-66
2022/06/22 05:15:43;;;;;;;0.10;0.10;;;;;;;;;;5062463;28;20237;-69
2022/06/22 05:18:14;;;;;;;0.00;0.00;;;;;;;;;;5084994;28;20205;-66
2022/06/22 05:20:45;;;;;;;0.00;0.00;;;;;;;;;;5062194;28;20283;-65
2022/06/22 05:23:12;;;;;;;0.00;0.00;;;;;;;;;;5084204;28;20219;-66
2022/06/22 05:25:39;;;;;;;0.05;0.05;;;;;;;;;;5061412;28;20527;-65
2022/06/22 05:28:07;;;;;;;0.00;0.00;;;;;;;;;;5085265;28;20297;-66
2022/06/22 05:30:36;;;;;;;0.00;0.00;;;;;;;;;;5059893;28;20278;-65
2022/06/22 05:33:05;;;;;;;0.10;0.10;;;;;;;;;;5085922;28;20269;-65
2022/06/22 05:35:34;;;;;;;0.00;0.00;;;;;;;;;;5059103;28;20265;-67
2022/06/22 05:38:02;;;;;;;0.00;0.00;;;;;;;;;;5086903;28;20202;-66
2022/06/22 05:40:30;;;;;;;0.00;0.00;;;;;;;;;;5058494;28;20570;-67
2022/06/22 05:42:57;;;;;;;0.00;0.00;;;;;;;;;;5087320;28;20291;-65
2022/06/22 05:45:24;;;;;;;0.00;0.00;;;;;;;;;;5057288;28;20276;-66
2022/06/22 05:47:52;;;;;;;0.00;0.00;;;;;;;;;;5089574;28;20518;-66
2022/06/22 05:50:22;;;;;;;0.00;0.00;;;;;;;;;;5055906;28;20502;-66
2022/06/22 05:52:54;;;;;;;0.00;0.00;;;;;;;;;;5089592;28;20359;-66
2022/06/22 05:55:25;;;;;;;0.00;0.00;;;;;;;;;;5056524;28;20489;-66
2022/06/22 05:57:55;;;;;;;0.00;0.00;;;;;;;;;;5089149;28;20218;-66
2022/06/22 06:00:23;;;;;;;0.00;0.00;;;;;;;;;;5055123;28;20241;-66
2022/06/22 06:03:04;;;;;;;0.00;0.00;;;;;;;;;;5090035;28;20518;-65
2022/06/22 06:05:34;;;;;;;0.00;0.00;;;;;;;;;;5058822;28;20307;-65
2022/06/22 06:08:06;;;;;;;0.00;0.00;;;;;;;;;;5085837;28;20202;-68
2022/06/22 06:10:33;;;;;;;0.03;0.03;;;;;;;;;;5059259;28;20263;-66
2022/06/22 06:13:02;;;;;;;0.00;0.00;;;;;;;;;;5086411;28;20276;-67
2022/06/22 06:15:30;;;;;;;0.10;0.10;;;;;;;;;;5057997;28;20241;-66
2022/06/22 06:17:58;;;;;;;0.00;0.00;;;;;;;;;;5087651;28;20589;-66
2022/06/22 06:20:28;;;;;;;0.00;0.00;;;;;;;;;;5057278;28;20291;-65
2022/06/22 06:22:57;;;;;;;0.00;0.00;;;;;;;;;;5087550;28;20277;-65
2022/06/22 06:28:14;;;;;;;0.00;0.00;;;;;;;;;;5083489;28;20561;-65
2022/06/22 06:30:43;;;;;;;0.00;0.00;;;;;;;;;;5061282;28;20251;-66
2022/06/22 06:33:13;;;;;;;0.00;0.00;;;;;;;;;;5084383;28;20396;-66
2022/06/22 06:35:43;;;;;;;0.03;0.03;;;;;;;;;;5060966;28;20288;-65
2022/06/22 06:38:14;;;;;;;0.00;0.00;;;;;;;;;;5083992;28;20410;-65
2022/06/22 06:40:44;;;;;;;0.00;0.00;;;;;;;;;;5061608;28;20249;-66
2022/06/22 06:43:21;;;;;;;0.00;0.00;;;;;;;;;;5083792;28;20202;-66
2022/06/22 06:45:48;;;;;;;0.00;0.00;;;;;;;;;;5066072;28;20261;-65
2022/06/22 06:48:17;;;;;;;0.00;0.00;;;;;;;;;;5086537;28;20214;-67
2022/06/22 06:50:47;;;;;;;0.10;0.10;;;;;;;;;;5065910;28;20259;-65
2022/06/22 06:53:19;;;;;;;0.10;0.10;;;;;;;;;;5087019;28;20273;-67
2022/06/22 06:55:50;;;;;;;0.05;0.05;;;;;;;;;;5066404;28;20253;-68
2022/06/22 06:58:19;;;;;;;0.00;0.00;;;;;;;;;;5086718;28;20376;-67
2022/06/22 07:00:46;;;;;;;0.00;0.00;;;;;;;;;;5066556;28;20541;-69
2022/06/22 07:03:17;;;;;;;0.00;0.00;;;;;;;;;;5086520;28;20285;-68
2022/06/22 07:05:43;;;;;;;0.00;0.00;;;;;;;;;;5065543;28;20240;-68
2022/06/22 07:08:13;;;;;;;0.00;0.00;;;;;;;;;;5087614;28;20469;-67
2022/06/22 07:10:42;;;;;;;0.10;0.10;;;;;;;;;;5064548;28;20248;-68
2022/06/22 07:13:14;;;;;;;0.00;0.00;;;;;;;;;;5087814;28;20207;-68
2022/06/22 07:15:42;;;;;;;0.00;0.00;;;;;;;;;;5064857;28;20256;-67
2022/06/22 07:18:15;;;;;;;0.08;0.08;;;;;;;;;;5087546;28;20231;-68
2022/06/22 07:20:43;;;;;;;0.00;0.00;;;;;;;;;;5065236;28;20290;-67
2022/06/22 07:23:13;;;;;;;0.00;0.00;;;;;;;;;;5087198;28;20260;-68
2022/06/22 07:25:44;;;;;;;0.00;0.00;;;;;;;;;;5064296;28;20502;-67
2022/06/22 07:28:15;;;;;;;0.00;0.00;;;;;;;;;;5087101;28;20226;-68
2022/06/22 07:30:44;;;;;;;0.00;0.00;;;;;;;;;;5064652;28;20314;-67
2022/06/22 07:33:12;;;;;;;0.10;0.10;;;;;;;;;;5086670;28;20543;-69
2022/06/22 07:35:41;;;;;;;0.00;0.00;;;;;;;;;;5063258;28;20241;-67
2022/06/22 07:38:23;;;;;;;0.00;0.00;;;;;;;;;;5087873;28;20238;-68
2022/06/22 07:43:35;;;;;;;0.00;0.00;;;;;;;;;;5079881;28;20220;-67
2022/06/22 07:46:02;;;;;;;0.00;0.00;;;;;;;;;;5069059;28;20257;-67
2022/06/22 07:48:30;;;;;;;0.00;0.00;;;;;;;;;;5082056;28;20209;-68
2022/06/22 07:50:58;;;;;;;0.10;0.10;;;;;;;;;;5068466;28;20508;-68
2022/06/22 07:53:28;;;;;;;0.00;0.00;;;;;;;;;;5082505;28;20448;-68
2022/06/22 07:55:59;;;;;;;0.00;0.00;;;;;;;;;;5067528;28;20257;-68
2022/06/22 07:58:28;;;;;;;0.10;0.10;;;;;;;;;;5082154;28;20233;-68
2022/06/22 08:00:58;;;;;;;0.00;0.00;;;;;;;;;;5067220;28;20241;-68
2022/06/22 08:03:27;;;;;;;0.10;0.10;;;;;;;;;;5082206;28;20232;-68
2022/06/22 08:05:56;;;;;;;0.00;0.00;;;;;;;;;;5067109;28;20251;-68
2022/06/22 08:08:24;;;;;;;0.00;0.00;;;;;;;;;;5082895;28;20564;-68
2022/06/22 08:10:53;;;;;;;0.08;0.08;;;;;;;;;;5066342;28;20299;-67
2022/06/22 08:13:21;;;;;;;0.00;0.00;;;;;;;;;;5083327;28;20208;-68
2022/06/22 08:15:51;;;;;;;0.05;0.05;;;;;;;;;;5065399;28;20244;-67
2022/06/22 08:18:19;;;;;;;0.00;0.00;;;;;;;;;;5083385;28;20242;-67
2022/06/22 08:20:48;;;;;;;0.00;0.00;;;;;;;;;;5064768;28;20452;-68
2022/06/22 08:23:17;;;;;;;0.00;0.00;;;;;;;;;;5084643;28;20207;-67
2022/06/22 08:25:45;;;;;;;0.00;0.00;;;;;;;;;;5064320;28;20239;-68
2022/06/22 08:28:13;;;;;;;0.00;0.00;;;;;;;;;;5085314;28;20223;-67
2022/06/22 08:30:40;;;;;;;0.00;0.00;;;;;;;;;;5063043;28;20241;-67
2022/06/22 08:33:07;;;;;;;0.00;0.00;;;;;;;;;;5086783;28;20290;-68
2022/06/22 08:35:36;;;;;;;0.00;0.00;;;;;;;;;;5061345;28;20305;-68
2022/06/22 08:38:07;;;;;;;0.00;0.00;;;;;;;;;;5087664;28;20246;-67
2022/06/22 08:40:38;;;;;;;0.00;0.00;;;;;;;;;;5061268;28;20620;-68
2022/06/22 08:43:07;;;;;;;0.00;0.00;;;;;;;;;;5086682;28;20218;-67
2022/06/22 08:45:44;;;;;;;0.00;0.00;;;;;;;;;;5061107;28;20298;-68
2022/06/22 08:48:31;;;;;;;0.00;0.00;;;;;;;;;;5085270;28;20376;-68
2022/06/22 08:51:11;;;;;;;0.00;0.00;;;;;;;;;;5067233;28;20244;-69
2022/06/22 08:53:55;;;;;;;0.00;0.00;;;;;;;;;;5078477;28;20522;-67
2022/06/22 08:56:28;;;;;;;0.00;0.00;;;;;;;;;;5073814;28;20236;-68
2022/06/22 08:59:07;;;;;;;0.00;0.00;;;;;;;;;;5073192;28;20223;-67
2022/06/22 09:01:40;;;;;;;0.00;0.00;;;;;;;;;;5076582;28;20240;-67
2022/06/22 09:04:22;;;;;;;0.00;0.00;;;;;;;;;;5069837;28;20283;-67
2022/06/22 09:07:04;;;;;;;0.00;0.00;;;;;;;;;;5080466;28;20242;-67
2022/06/22 09:09:36;;;;;;;0.00;0.00;;;;;;;;;;5063924;28;20242;-67
2022/06/22 09:12:07;;;;;;;0.00;0.00;;;;;;;;;;5084342;28;20489;-68
2022/06/22 09:14:53;;;;;;;0.00;0.00;;;;;;;;;;5063209;28;20370;-67
2022/06/22 09:17:31;;;;;;;0.00;0.00;;;;;;;;;;5084956;28;20235;-68
2022/06/22 09:20:04;;;;;;;0.00;0.00;;;;;;;;;;5063369;28;20208;-68
2022/06/22 09:22:37;;;;;;;0.00;0.00;;;;;;;;;;5051555;28;20275;-68
2022/06/22 09:25:07;;;;;;;0.10;0.10;;;;;;;;;;5062708;28;20445;-68
2022/06/22 09:27:39;;;;;;;0.00;0.00;;;;;;;;;;5051559;28;20204;-68
2022/06/22 09:30:10;;;;;;;0.00;0.00;;;;;;;;;;5063321;28;20218;-68
2022/06/22 09:32:55;;;;;;;0.00;0.00;;;;;;;;;;5051421;28;20421;-68
2022/06/22 09:35:42;;;;;;;0.00;0.00;;;;;;;;;;5056979;28;20233;-68
2022/06/22 09:38:29;;;;;;;0.00;0.00;;;;;;;;;;5085011;28;20318;-67
2022/06/22 09:40:58;;;;;;;0.00;0.00;;;;;;;;;;5066031;28;20369;-68
2022/06/22 09:43:45;;;;;;;0.00;0.00;;;;;;;;;;5080459;28;20204;-67
2022/06/22 09:46:20;;;;;;;0.00;0.00;;;;;;;;;;5069745;28;20257;-68
2022/06/22 09:48:55;;;;;;;0.00;0.00;;;;;;;;;;5074701;28;20195;-68
2022/06/22 09:51:30;;;;;;;0.00;0.00;;;;;;;;;;5072738;28;20348;-68
2022/06/22 09:56:19;;;;;;;0.08;0.08;;;;;;;;;;5071977;28;20204;-68
2022/06/22 09:57:02;;;;;;;0.00;0.00;;;;;;;;;;5082465;28;20234;-68
2022/06/22 09:59:40;;;;;;;0.00;0.00;;;;;;;;;;5063585;28;20275;-68
2022/06/22 10:02:16;;;;;;;0.00;0.00;;;;;;;;;;5084244;28;20250;-69
2022/06/22 10:05:01;;;;;;;0.00;0.00;;;;;;;;;;5062608;28;20235;-68
2022/06/22 10:07:35;;;;;;;0.00;0.00;;;;;;;;;;5084239;28;20238;-68
2022/06/22 10:10:17;;;;;;;0.00;0.00;;;;;;;;;;5062604;28;20533;-68
2022/06/22 10:12:58;;;;;;;0.00;0.00;;;;;;;;;;5060825;28;20375;-68
2022/06/22 10:15:32;;;;;;;0.00;0.00;;;;;;;;;;5054112;28;20192;-68
2022/06/22 10:18:05;;;;;;;0.00;0.00;;;;;;;;;;5089799;28;20234;-68
2022/06/22 10:20:37;;;;;;;0.00;0.00;;;;;;;;;;5059802;28;20199;-69
2022/06/22 10:23:08;;;;;;;0.00;0.00;;;;;;;;;;5093032;28;20192;-70
2022/06/22 10:25:45;;;;;;;0.00;0.00;;;;;;;;;;5063981;28;20262;-70
2022/06/22 10:28:22;;;;;;;0.00;0.00;;;;;;;;;;5087254;28;20219;-69
2022/06/22 10:30:51;;;;;;;0.00;0.00;;;;;;;;;;5067562;28;20238;-68
2022/06/22 10:33:29;;;;;;;0.00;0.00;;;;;;;;;;5085502;28;20286;-73
2022/06/22 10:36:01;;;;;;;0.00;0.00;;;;;;;;;;5069104;28;20238;-69
2022/06/22 10:38:40;;;;;;;0.00;0.00;;;;;;;;;;5082950;28;20228;-68
2022/06/22 10:47:08;;;;;;;0.00;0.00;;;;;;;;;;5054242;28;20589;-68
2022/06/22 10:49:43;;;;;;;0.00;0.00;;;;;;;;;;5066037;28;20204;-69
2022/06/22 10:52:17;;;;;;;0.00;0.00;;;;;;;;;;5087762;28;20323;-69
2022/06/22 10:54:53;;;;;;;0.00;0.00;;;;;;;;;;5065623;28;20203;-67
2022/06/22 10:57:40;;;;;;;0.00;0.00;;;;;;;;;;5087619;28;20238;-67
2022/06/22 11:00:20;;;;;;;0.00;0.00;;;;;;;;;;5055689;28;20204;-67
2022/06/22 11:03:02;;;;;;;0.00;0.00;;;;;;;;;;5065423;28;20243;-69
2022/06/22 11:05:39;;;;;;;0.00;0.00;;;;;;;;;;5061893;28;20342;-67
2022/06/22 11:08:12;;;;;;;0.00;0.00;;;;;;;;;;5087988;28;20220;-68
2022/06/22 11:10:47;;;;;;;0.00;0.00;;;;;;;;;;5063944;28;20288;-68
2022/06/22 11:13:22;;;;;;;0.00;0.00;;;;;;;;;;5086119;28;20219;-69
2022/06/22 11:16:03;;;;;;;0.00;0.00;;;;;;;;;;5066604;28;20265;-69
2022/06/22 11:18:42;;;;;;;0.00;0.00;;;;;;;;;;5081637;28;20232;-69
2022/06/22 11:21:13;;;;;;;0.00;0.00;;;;;;;;;;5071695;28;20302;-69
2022/06/22 11:23:54;;;;;;;0.00;0.00;;;;;;;;;;5078969;28;20395;-69
2022/06/22 11:32:27;;;;;;;0.00;0.00;;;;;;;;;;5086831;28;20291;-68
2022/06/22 11:35:20;;;;;;;0.00;0.00;;;;;;;;;;5065137;28;20460;-68
2022/06/22 11:37:55;;;;;;;0.00;0.00;;;;;;;;;;5064572;28;20208;-68
2022/06/22 11:40:30;;;;;;;0.00;0.00;;;;;;;;;;5059109;28;20203;-67
2022/06/22 11:43:02;;;;;;;0.00;0.00;;;;;;;;;;5090234;28;20309;-68
2022/06/22 11:45:51;;;;;;;0.00;0.00;;;;;;;;;;5060455;28;20245;-69
2022/06/22 11:48:24;;;;;;;0.00;0.00;;;;;;;;;;5084548;28;20251;-69
2022/06/22 11:50:59;;;;;;;0.00;0.00;;;;;;;;;;5066392;28;20246;-68
2022/06/22 11:53:30;;;;;;;0.00;0.00;;;;;;;;;;5082569;28;20290;-68
2022/06/22 11:55:58;;;;;;;0.00;0.00;;;;;;;;;;5067918;28;20456;-68
2022/06/22 11:58:31;;;;;;;0.00;0.00;;;;;;;;;;5082283;28;20228;-67
2022/06/22 12:01:03;;;;;;;0.00;0.00;;;;;;;;;;5066977;28;20294;-69
2022/06/22 12:03:45;;;;;;;0.00;0.00;;;;;;;;;;5081751;28;20212;-68
2022/06/22 12:06:20;;;;;;;0.00;0.00;;;;;;;;;;5071897;28;20238;-68
2022/06/22 12:09:01;;;;;;;0.00;0.00;;;;;;;;;;5076727;28;20203;-69
2022/06/22 12:11:32;;;;;;;0.00;0.00;;;;;;;;;;5076307;28;20238;-70
2022/06/22 12:16:58;;;;;;;0.00;0.00;;;;;;;;;;5082925;28;20300;-68
2022/06/22 12:19:29;;;;;;;0.00;0.00;;;;;;;;;;5066242;28;20232;-68
2022/06/22 12:22:04;;;;;;;0.00;0.00;;;;;;;;;;5083503;28;20301;-69
2022/06/22 12:24:37;;;;;;;0.00;0.00;;;;;;;;;;5064648;28;20251;-69
2022/06/22 12:27:11;;;;;;;0.00;0.00;;;;;;;;;;5084995;28;20270;-69
2022/06/22 12:29:41;;;;;;;0.00;0.00;;;;;;;;;;5064296;28;20270;-69
2022/06/22 12:32:13;;;;;;;0.00;0.00;;;;;;;;;;5085984;28;20440;-69
2022/06/22 12:34:42;;;;;;;0.00;0.00;;;;;;;;;;5064173;28;20200;-70
2022/06/22 12:37:14;;;;;;;0.00;0.00;;;;;;;;;;5085891;28;20288;-71
2022/06/22 12:39:44;;;;;;;0.00;0.00;;;;;;;;;;5064122;28;20254;-69
2022/06/22 12:42:18;;;;;;;0.00;0.00;;;;;;;;;;5084625;28;20238;-69
2022/06/22 12:45:00;;;;;;;0.00;0.00;;;;;;;;;;5064072;28;20203;-68
2022/06/22 12:47:32;;;;;;;0.00;0.00;;;;;;;;;;5060749;28;20251;-69
2022/06/22 12:50:08;;;;;;;0.00;0.00;;;;;;;;;;5063815;28;20206;-69
2022/06/22 12:52:38;;;;;;;0.00;0.00;;;;;;;;;;5051889;28;20211;-69
2022/06/22 12:55:08;;;;;;;0.00;0.00;;;;;;;;;;5062197;28;20238;-67
2022/06/22 12:57:40;;;;;;;0.00;0.00;;;;;;;;;;5094379;28;20218;-68
2022/06/22 13:00:08;;;;;;;0.00;0.00;;;;;;;;;;5059095;28;20204;-68
2022/06/22 13:02:36;;;;;;;0.00;0.00;;;;;;;;;;5094782;28;20295;-67
2022/06/22 13:05:06;;;;;;;0.00;0.00;;;;;;;;;;5062963;28;20452;-69
2022/06/22 13:07:35;;;;;;;0.00;0.00;;;;;;;;;;5051449;28;20230;-69
2022/06/22 13:10:03;;;;;;;0.00;0.00;;;;;;;;;;5063275;28;20212;-69
2022/06/22 13:12:34;;;;;;;0.00;0.00;;;;;;;;;;5051555;28;20592;-70
2022/06/22 13:15:02;;;;;;;0.00;0.00;;;;;;;;;;5062814;28;20441;-70
2022/06/22 13:17:31;;;;;;;0.00;0.00;;;;;;;;;;5084911;28;20307;-69
2022/06/22 13:20:24;;;;;;;0.00;0.00;;;;;;;;;;5063242;28;20411;-68
2022/06/22 13:22:53;;;;;;;0.00;0.00;;;;;;;;;;5037709;28;20207;-68
2022/06/22 13:25:26;;;;;;;0.00;0.00;;;;;;;;;;5056805;28;20227;-69
2022/06/22 13:27:54;;;;;;;0.00;0.00;;;;;;;;;;5089198;28;20200;-68
2022/06/22 13:30:23;;;;;;;0.00;0.00;;;;;;;;;;5056582;28;20278;-67
2022/06/22 13:32:54;;;;;;;0.00;0.00;;;;;;;;;;5089876;28;20370;-68
2022/06/22 13:35:24;;;;;;;0.00;0.00;;;;;;;;;;5056792;28;20367;-70
2022/06/22 13:37:55;;;;;;;0.00;0.00;;;;;;;;;;5089274;28;20200;-68
2022/06/22 13:40:27;;;;;;;0.00;0.00;;;;;;;;;;5057187;28;20322;-67
2022/06/22 13:43:05;;;;;;;0.00;0.00;;;;;;;;;;5088681;28;20263;-68
2022/06/22 13:45:38;;;;;;;0.00;0.00;;;;;;;;;;5059450;28;20238;-68
2022/06/22 13:48:14;;;;;;;0.00;0.00;;;;;;;;;;5085015;28;20203;-68
2022/06/22 13:51:05;;;;;;;0.00;0.00;;;;;;;;;;5061743;28;20238;-68
2022/06/22 13:53:41;;;;;;;0.00;0.00;;;;;;;;;;5077887;28;20210;-68
2022/06/22 13:56:14;;;;;;;0.00;0.00;;;;;;;;;;5069047;28;20421;-68
2022/06/22 13:58:42;;;;;;;0.00;0.00;;;;;;;;;;5075825;28;20240;-68
2022/06/22 14:01:13;;;;;;;0.00;0.00;;;;;;;;;;5068882;28;20450;-68
2022/06/22 14:03:44;;;;;;;0.00;0.00;;;;;;;;;;5075561;28;20413;-67
2022/06/22 14:06:13;;;;;;;0.00;0.00;;;;;;;;;;5069234;28;20243;-68
2022/06/22 14:08:43;;;;;;;0.00;0.00;;;;;;;;;;5075769;28;20200;-67
2022/06/22 14:11:16;;;;;;;0.00;0.00;;;;;;;;;;5069153;28;20546;-68
2022/06/22 14:13:45;;;;;;;0.00;0.00;;;;;;;;;;5075006;28;20468;-67
2022/06/22 14:16:15;;;;;;;0.00;0.00;;;;;;;;;;5069490;28;20245;-68
2022/06/22 14:18:47;;;;;;;0.00;0.00;;;;;;;;;;5074659;28;20223;-67
2022/06/22 14:21:21;;;;;;;0.00;0.00;;;;;;;;;;5069976;28;20254;-68
2022/06/22 14:23:47;;;;;;;0.00;0.00;;;;;;;;;;5073665;28;20253;-68
2022/06/22 14:26:32;;;;;;;0.00;0.00;;;;;;;;;;5070243;28;20244;-68
2022/06/22 14:29:01;;;;;;;0.00;0.00;;;;;;;;;;5070425;28;20230;-67
2022/06/22 14:31:31;;;;;;;0.00;0.00;;;;;;;;;;5073756;28;20324;-68
2022/06/22 14:34:00;;;;;;;0.00;0.00;;;;;;;;;;5070194;28;20204;-68
2022/06/22 14:36:32;;;;;;;0.00;0.00;;;;;;;;;;5073340;28;20320;-69
2022/06/22 14:39:02;;;;;;;0.00;0.00;;;;;;;;;;5070321;28;20450;-68
2022/06/22 14:41:33;;;;;;;0.00;0.00;;;;;;;;;;5073943;28;20581;-69
2022/06/22 14:44:13;;;;;;;0.00;0.00;;;;;;;;;;5070310;28;20298;-69
2022/06/22 14:46:41;;;;;;;0.00;0.00;;;;;;;;;;5076660;28;20457;-68
2022/06/22 14:49:12;;;;;;;0.00;0.00;;;;;;;;;;5067918;28;20200;-68
2022/06/22 14:51:41;;;;;;;0.00;0.00;;;;;;;;;;5076227;28;20257;-68
2022/06/22 14:54:12;;;;;;;0.00;0.00;;;;;;;;;;5068165;28;20224;-69
2022/06/22 14:56:42;;;;;;;0.00;0.00;;;;;;;;;;5076364;28;20246;-68
2022/06/22 14:59:13;;;;;;;0.00;0.00;;;;;;;;;;5067764;28;20228;-67
2022/06/22 15:01:42;;;;;;;0.00;0.00;;;;;;;;;;5076683;28;20268;-67
2022/06/22 15:04:12;;;;;;;0.00;0.00;;;;;;;;;;5068725;28;20287;-68
2022/06/22 15:06:55;;;;;;;0.00;0.00;;;;;;;;;;5079873;28;20241;-69
2022/06/22 15:09:24;;;;;;;0.00;0.00;;;;;;;;;;5068831;28;20229;-67
2022/06/22 15:14:46;;;;;;;0.00;0.00;;;;;;;;;;5065090;28;20227;-71
2022/06/22 15:17:18;;;;;;;0.00;0.00;;;;;;;;;;5087657;28;20234;-67
2022/06/22 15:19:49;;;;;;;0.00;0.00;;;;;;;;;;5066044;28;20228;-67
2022/06/22 15:22:18;;;;;;;0.00;0.00;;;;;;;;;;5087132;28;20301;-69
2022/06/22 15:24:50;;;;;;;0.00;0.00;;;;;;;;;;5064568;28;20204;-67
2022/06/22 15:27:22;;;;;;;0.00;0.00;;;;;;;;;;5086970;28;20250;-67
2022/06/22 15:29:51;;;;;;;0.00;0.00;;;;;;;;;;5065162;28;20389;-67
2022/06/22 15:32:19;;;;;;;0.00;0.00;;;;;;;;;;5086864;28;20584;-67
2022/06/22 15:34:47;;;;;;;0.00;0.00;;;;;;;;;;5064973;28;20204;-68
2022/06/22 15:37:28;;;;;;;0.00;0.00;;;;;;;;;;5085837;28;20516;-68
2022/06/22 15:40:00;;;;;;;0.00;0.00;;;;;;;;;;5062880;28;20278;-68
2022/06/22 15:42:32;;;;;;;0.00;0.00;;;;;;;;;;5086620;28;20262;-69
2022/06/22 15:45:02;;;;;;;0.00;0.00;;;;;;;;;;5064776;28;20495;-68
2022/06/22 15:47:33;;;;;;;0.00;0.00;;;;;;;;;;5086263;28;20306;-68
2022/06/22 15:50:08;;;;;;;0.00;0.00;;;;;;;;;;5064733;28;20207;-68
2022/06/22 15:52:40;;;;;;;0.00;0.00;;;;;;;;;;5052718;28;20208;-68
2022/06/22 15:55:09;;;;;;;0.00;0.00;;;;;;;;;;5055001;28;20235;-67
2022/06/22 15:57:41;;;;;;;0.00;0.00;;;;;;;;;;5095210;28;20227;-68
2022/06/22 16:00:21;;;;;;;0.00;0.00;;;;;;;;;;5055098;28;20227;-68